Time;durP1;ratioP1;P1;durP2;ratioP2;P2;SDS_P1;SDS_P2;PMS_P1;PMS_P2;Temp;Humidity;BMP_temperature;BMP_pressure;BME280_temperature;BME280_humidity;BME280_pressure;Samples;Min_cycle;Max_cycle;Signal;HPM_P1;HPM_P2
2023/03/31 00:01:18;;;;;;;3.43;2.60;;;;;;;;;;5071571;28;20421;-86
2023/03/31 00:03:44;;;;;;;6.40;4.15;;;;;;;;;;5070655;28;20463;-86
2023/03/31 00:06:16;;;;;;;5.78;4.53;;;;;;;;;;5071513;28;20391;-86
2023/03/31 00:08:42;;;;;;;6.45;3.65;;;;;;;;;;5071364;28;20411;-86
2023/03/31 00:11:08;;;;;;;5.35;4.10;;;;;;;;;;5053118;28;20392;-86
2023/03/31 00:13:35;;;;;;;4.55;3.10;;;;;;;;;;5071170;28;20410;-86
2023/03/31 00:16:08;;;;;;;11.18;8.40;;;;;;;;;;5069826;28;20407;-86
2023/03/31 00:18:35;;;;;;;8.02;4.55;;;;;;;;;;5071065;28;20706;-85
2023/03/31 00:21:08;;;;;;;4.88;4.05;;;;;;;;;;5071196;28;20383;-86
2023/03/31 00:23:34;;;;;;;5.65;4.60;;;;;;;;;;5069590;28;20415;-86
2023/03/31 00:26:00;;;;;;;6.68;4.60;;;;;;;;;;5071223;28;20380;-85
2023/03/31 00:28:26;;;;;;;5.30;3.63;;;;;;;;;;5071075;28;20383;-86
2023/03/31 00:30:52;;;;;;;6.23;2.87;;;;;;;;;;5071176;28;20784;-85
2023/03/31 00:33:18;;;;;;;3.80;2.90;;;;;;;;;;5070909;28;20400;-86
2023/03/31 00:35:44;;;;;;;4.85;2.83;;;;;;;;;;5071159;28;20386;-85
2023/03/31 00:38:12;;;;;;;4.30;2.70;;;;;;;;;;5070426;28;20437;-86
2023/03/31 00:40:45;;;;;;;4.85;2.63;;;;;;;;;;5070973;28;20415;-85
2023/03/31 00:43:18;;;;;;;4.90;2.92;;;;;;;;;;5070881;28;20857;-85
2023/03/31 00:45:45;;;;;;;4.37;2.93;;;;;;;;;;5071058;28;20375;-85
2023/03/31 00:48:15;;;;;;;3.80;2.65;;;;;;;;;;5070854;28;20386;-86
2023/03/31 00:50:48;;;;;;;4.75;2.95;;;;;;;;;;5070592;28;20383;-85
2023/03/31 00:53:16;;;;;;;4.73;2.97;;;;;;;;;;5070783;28;20438;-85
2023/03/31 00:55:47;;;;;;;5.25;2.90;;;;;;;;;;5065601;28;20382;-85
2023/03/31 00:58:19;;;;;;;4.50;2.83;;;;;;;;;;5052864;28;20891;-86
2023/03/31 01:00:46;;;;;;;4.80;3.20;;;;;;;;;;5070729;28;20479;-86
2023/03/31 01:03:12;;;;;;;6.22;3.20;;;;;;;;;;5052610;28;20379;-85
2023/03/31 01:05:56;;;;;;;4.57;3.08;;;;;;;;;;5070763;28;20395;-86
2023/03/31 01:08:25;;;;;;;3.47;2.60;;;;;;;;;;5070652;28;20391;-86
2023/03/31 01:10:52;;;;;;;4.90;2.80;;;;;;;;;;5070656;28;20383;-85
2023/03/31 01:13:19;;;;;;;4.57;3.08;;;;;;;;;;5052618;28;20415;-86
2023/03/31 01:15:45;;;;;;;4.45;2.65;;;;;;;;;;5074149;28;20433;-86
2023/03/31 01:18:12;;;;;;;5.53;3.00;;;;;;;;;;5074449;28;20470;-85
2023/03/31 01:20:51;;;;;;;4.63;3.30;;;;;;;;;;5074508;28;20510;-85
2023/03/31 01:23:20;;;;;;;6.10;4.38;;;;;;;;;;5074194;28;20411;-85
2023/03/31 01:26:01;;;;;;;5.32;3.58;;;;;;;;;;5074448;28;20380;-86
2023/03/31 01:28:33;;;;;;;9.50;8.48;;;;;;;;;;5074093;28;20403;-85
2023/03/31 01:31:15;;;;;;;4.75;3.55;;;;;;;;;;5071554;28;20379;-85
2023/03/31 01:34:00;;;;;;;3.75;3.20;;;;;;;;;;5060309;28;20514;-85
2023/03/31 01:36:54;;;;;;;3.78;2.60;;;;;;;;;;5066282;28;20407;-85
2023/03/31 01:39:39;;;;;;;5.57;3.00;;;;;;;;;;5054866;28;20401;-85
2023/03/31 01:42:05;;;;;;;5.97;2.90;;;;;;;;;;5072281;28;20382;-84
2023/03/31 01:44:45;;;;;;;4.97;2.80;;;;;;;;;;5073495;28;20478;-85
2023/03/31 01:47:25;;;;;;;6.53;2.80;;;;;;;;;;5073741;28;20367;-85
2023/03/31 01:50:02;;;;;;;4.68;3.00;;;;;;;;;;5067893;28;20375;-85
2023/03/31 01:52:48;;;;;;;6.05;3.72;;;;;;;;;;5068458;28;20408;-85
2023/03/31 01:55:44;;;;;;;5.90;2.80;;;;;;;;;;5071104;28;20392;-87
2023/03/31 01:58:17;;;;;;;4.97;3.33;;;;;;;;;;5032852;28;20461;-85
2023/03/31 02:00:50;;;;;;;4.55;3.08;;;;;;;;;;5071884;28;20466;-85
2023/03/31 02:03:28;;;;;;;3.25;2.95;;;;;;;;;;5071622;28;20425;-85
2023/03/31 02:05:56;;;;;;;3.15;2.65;;;;;;;;;;5071744;28;20581;-85
2023/03/31 02:08:24;;;;;;;4.03;3.30;;;;;;;;;;5071512;28;20398;-85
2023/03/31 02:10:51;;;;;;;4.82;3.40;;;;;;;;;;5072581;28;20849;-85
2023/03/31 02:13:18;;;;;;;3.65;3.10;;;;;;;;;;5073406;28;20419;-85
2023/03/31 02:15:47;;;;;;;4.95;3.55;;;;;;;;;;5072335;28;20376;-85
2023/03/31 02:18:16;;;;;;;4.93;3.80;;;;;;;;;;5073353;28;20824;-84
2023/03/31 02:20:42;;;;;;;3.92;3.05;;;;;;;;;;5073505;28;20383;-85
2023/03/31 02:23:09;;;;;;;5.15;3.70;;;;;;;;;;5073121;28;20451;-85
2023/03/31 02:25:38;;;;;;;5.57;3.57;;;;;;;;;;5071500;28;20528;-85
2023/03/31 02:28:07;;;;;;;4.00;3.17;;;;;;;;;;5073101;28;20744;-84
2023/03/31 02:30:45;;;;;;;5.82;3.38;;;;;;;;;;5073206;28;20391;-84
2023/03/31 02:33:11;;;;;;;4.57;3.22;;;;;;;;;;5072537;28;20916;-85
2023/03/31 02:35:37;;;;;;;4.80;2.97;;;;;;;;;;5073046;28;20430;-85
2023/03/31 02:38:05;;;;;;;5.78;3.55;;;;;;;;;;5073022;28;20753;-85
2023/03/31 02:40:31;;;;;;;5.53;3.97;;;;;;;;;;5073143;28;20896;-84
2023/03/31 02:42:57;;;;;;;6.50;3.90;;;;;;;;;;5072893;28;20593;-84
2023/03/31 02:45:39;;;;;;;5.82;3.85;;;;;;;;;;5072968;28;20426;-85
2023/03/31 02:48:06;;;;;;;7.15;4.47;;;;;;;;;;5066408;28;20428;-85
2023/03/31 02:50:38;;;;;;;5.33;3.87;;;;;;;;;;5072855;28;20602;-85
2023/03/31 02:53:27;;;;;;;6.40;4.00;;;;;;;;;;5072652;28;20407;-84
2023/03/31 02:56:12;;;;;;;7.13;4.50;;;;;;;;;;5031772;28;20375;-85
2023/03/31 02:58:47;;;;;;;6.20;4.45;;;;;;;;;;5072917;28;20376;-85
2023/03/31 03:01:18;;;;;;;8.30;4.90;;;;;;;;;;5072578;28;20823;-85
2023/03/31 03:03:51;;;;;;;6.88;5.25;;;;;;;;;;5072470;28;20863;-84
2023/03/31 03:06:23;;;;;;;6.40;4.28;;;;;;;;;;5054568;28;20872;-85
2023/03/31 03:08:54;;;;;;;6.47;4.53;;;;;;;;;;5072422;28;20391;-86
2023/03/31 03:11:20;;;;;;;6.70;4.22;;;;;;;;;;5072707;28;20447;-85
2023/03/31 03:13:51;;;;;;;6.93;4.77;;;;;;;;;;5072294;28;20440;-84
2023/03/31 03:16:29;;;;;;;7.32;4.40;;;;;;;;;;5072130;28;20375;-85
2023/03/31 03:19:05;;;;;;;5.30;4.20;;;;;;;;;;5072276;28;20376;-85
2023/03/31 03:21:31;;;;;;;6.25;4.40;;;;;;;;;;5072001;28;20380;-84
2023/03/31 03:23:58;;;;;;;5.60;3.90;;;;;;;;;;5068273;28;20403;-85
2023/03/31 03:26:26;;;;;;;5.55;3.95;;;;;;;;;;5072015;28;20383;-85
2023/03/31 03:28:53;;;;;;;6.28;4.25;;;;;;;;;;5072080;28;20376;-83
2023/03/31 03:31:19;;;;;;;4.72;4.05;;;;;;;;;;5104030;22;20429;-82
2023/03/31 03:33:46;;;;;;;4.97;4.15;;;;;;;;;;5091886;28;20409;-83
2023/03/31 03:36:12;;;;;;;6.50;4.43;;;;;;;;;;5092268;28;20734;-82
2023/03/31 03:38:38;;;;;;;7.28;4.43;;;;;;;;;;5091223;28;20378;-82
2023/03/31 03:41:04;;;;;;;5.53;3.92;;;;;;;;;;5092134;28;20858;-83
2023/03/31 03:43:30;;;;;;;5.13;3.83;;;;;;;;;;5092114;28;20373;-83
2023/03/31 03:45:56;;;;;;;4.32;3.50;;;;;;;;;;5092190;28;20370;-83
2023/03/31 03:48:22;;;;;;;7.32;4.40;;;;;;;;;;5091907;28;20431;-83
2023/03/31 03:50:48;;;;;;;5.40;4.43;;;;;;;;;;5092057;28;20381;-83
2023/03/31 03:53:14;;;;;;;6.38;4.55;;;;;;;;;;5073726;28;20398;-83
2023/03/31 03:55:41;;;;;;;5.10;4.20;;;;;;;;;;5073578;28;20855;-83
2023/03/31 03:58:07;;;;;;;6.18;4.30;;;;;;;;;;5091502;28;20430;-83
2023/03/31 04:00:33;;;;;;;7.47;4.30;;;;;;;;;;5091689;28;20814;-83
2023/03/31 04:02:59;;;;;;;7.63;4.28;;;;;;;;;;5091757;28;20388;-83
2023/03/31 04:05:25;;;;;;;6.60;4.10;;;;;;;;;;5091665;28;20431;-83
2023/03/31 04:07:51;;;;;;;5.28;4.50;;;;;;;;;;5092046;28;20378;-83
2023/03/31 04:10:17;;;;;;;5.87;4.30;;;;;;;;;;5091737;28;20506;-83
2023/03/31 04:12:43;;;;;;;7.70;4.65;;;;;;;;;;5091428;28;20409;-83
2023/03/31 04:15:09;;;;;;;7.30;4.60;;;;;;;;;;5091637;28;20374;-83
2023/03/31 04:17:35;;;;;;;7.30;4.50;;;;;;;;;;5091201;28;20413;-83
2023/03/31 04:20:08;;;;;;;6.88;4.53;;;;;;;;;;5091106;28;20378;-83
2023/03/31 04:22:34;;;;;;;6.90;4.22;;;;;;;;;;5091493;28;20378;-83
2023/03/31 04:25:09;;;;;;;6.53;4.10;;;;;;;;;;5091423;28;20886;-83
2023/03/31 04:27:35;;;;;;;4.80;4.03;;;;;;;;;;5091734;28;20366;-83
2023/03/31 04:30:01;;;;;;;6.72;4.63;;;;;;;;;;5087768;28;20401;-83
2023/03/31 04:32:31;;;;;;;6.00;4.63;;;;;;;;;;5089026;28;20462;-83
2023/03/31 04:35:01;;;;;;;6.40;4.90;;;;;;;;;;5082639;28;20500;-83
2023/03/31 04:37:33;;;;;;;6.22;4.82;;;;;;;;;;5091203;28;20375;-83
2023/03/31 04:40:06;;;;;;;5.10;4.40;;;;;;;;;;5091147;28;20381;-83
2023/03/31 04:42:32;;;;;;;6.85;4.60;;;;;;;;;;5091514;28;20370;-83
2023/03/31 04:44:58;;;;;;;7.00;4.90;;;;;;;;;;5092433;28;20428;-83
2023/03/31 04:47:24;;;;;;;6.00;4.28;;;;;;;;;;5103171;28;20378;-83
2023/03/31 04:49:50;;;;;;;4.30;3.90;;;;;;;;;;5093065;28;20503;-83
2023/03/31 04:52:16;;;;;;;5.05;3.97;;;;;;;;;;5077057;28;20622;-83
2023/03/31 04:54:42;;;;;;;4.32;3.90;;;;;;;;;;5095408;28;20406;-83
2023/03/31 04:57:08;;;;;;;4.82;3.78;;;;;;;;;;5097121;28;20441;-82
2023/03/31 04:59:34;;;;;;;5.43;4.30;;;;;;;;;;5095200;28;20378;-84
2023/03/31 05:02:00;;;;;;;7.05;4.78;;;;;;;;;;5094975;28;20378;-83
2023/03/31 05:04:26;;;;;;;10.52;7.43;;;;;;;;;;5090736;28;20605;-83
2023/03/31 05:06:52;;;;;;;11.13;8.65;;;;;;;;;;5095143;28;20384;-83
2023/03/31 05:09:19;;;;;;;11.60;8.30;;;;;;;;;;5094449;28;20386;-87
2023/03/31 05:11:45;;;;;;;10.40;6.80;;;;;;;;;;5095117;28;20378;-85
2023/03/31 05:14:11;;;;;;;11.48;8.15;;;;;;;;;;5076467;28;20480;-87
2023/03/31 05:16:37;;;;;;;9.10;6.20;;;;;;;;;;5076624;28;20859;-81
2023/03/31 05:19:03;;;;;;;6.07;5.20;;;;;;;;;;5094629;28;20523;-81
2023/03/31 05:21:30;;;;;;;6.82;5.45;;;;;;;;;;5095409;28;20447;-82
2023/03/31 05:23:56;;;;;;;8.35;5.45;;;;;;;;;;5097344;28;20787;-82
2023/03/31 05:26:24;;;;;;;10.07;6.03;;;;;;;;;;5096996;28;20457;-82
2023/03/31 05:28:50;;;;;;;7.77;5.80;;;;;;;;;;5098512;28;20381;-82
2023/03/31 05:31:16;;;;;;;8.53;6.10;;;;;;;;;;5099918;28;20421;-81
2023/03/31 05:33:43;;;;;;;7.57;5.70;;;;;;;;;;5095949;28;20398;-81
2023/03/31 05:36:10;;;;;;;7.50;5.65;;;;;;;;;;5095998;28;20389;-81
2023/03/31 05:38:36;;;;;;;6.65;5.55;;;;;;;;;;5095388;28;20374;-82
2023/03/31 05:41:02;;;;;;;11.73;6.50;;;;;;;;;;5094791;28;20373;-82
2023/03/31 05:43:29;;;;;;;8.52;5.53;;;;;;;;;;5076221;28;20448;-82
2023/03/31 05:45:55;;;;;;;6.55;5.57;;;;;;;;;;5094574;28;20406;-82
2023/03/31 05:48:22;;;;;;;10.10;6.45;;;;;;;;;;5094620;28;20724;-82
2023/03/31 05:50:47;;;;;;;9.98;6.55;;;;;;;;;;5094323;28;20366;-81
2023/03/31 05:53:13;;;;;;;11.73;7.25;;;;;;;;;;5094087;28;20825;-82
2023/03/31 05:55:40;;;;;;;10.35;7.55;;;;;;;;;;5094267;28;20461;-82
2023/03/31 05:58:05;;;;;;;10.35;6.50;;;;;;;;;;5094423;28;20378;-82
2023/03/31 06:00:32;;;;;;;10.73;6.90;;;;;;;;;;5093280;28;20374;-82
2023/03/31 06:02:58;;;;;;;8.60;6.30;;;;;;;;;;5093830;28;20381;-81
2023/03/31 06:05:25;;;;;;;8.50;6.00;;;;;;;;;;5094371;28;20782;-85
2023/03/31 06:07:52;;;;;;;9.50;6.97;;;;;;;;;;5075786;28;20747;-83
2023/03/31 06:10:18;;;;;;;7.20;6.18;;;;;;;;;;5094039;28;20378;-84
2023/03/31 06:12:44;;;;;;;7.88;6.38;;;;;;;;;;5093549;28;20512;-82
2023/03/31 06:15:10;;;;;;;7.50;6.18;;;;;;;;;;5093669;28;20378;-83
2023/03/31 06:17:37;;;;;;;6.65;5.93;;;;;;;;;;5093706;28;20382;-84
2023/03/31 06:20:04;;;;;;;9.32;6.65;;;;;;;;;;5093750;28;20389;-81
2023/03/31 06:22:30;;;;;;;7.65;6.00;;;;;;;;;;5094157;28;20374;-81
2023/03/31 06:24:56;;;;;;;8.80;6.78;;;;;;;;;;5093659;28;20402;-81
2023/03/31 06:27:22;;;;;;;8.95;7.00;;;;;;;;;;5093644;28;20406;-81
2023/03/31 06:29:49;;;;;;;10.00;6.35;;;;;;;;;;5093281;28;20459;-82
2023/03/31 06:32:15;;;;;;;8.25;6.45;;;;;;;;;;5093564;28;20876;-81
2023/03/31 06:34:41;;;;;;;7.60;6.60;;;;;;;;;;5093467;28;20385;-83
2023/03/31 06:37:07;;;;;;;8.40;6.00;;;;;;;;;;5086988;28;20455;-82
2023/03/31 06:39:33;;;;;;;9.40;6.50;;;;;;;;;;5086602;28;20465;-81
2023/03/31 06:41:59;;;;;;;8.25;7.00;;;;;;;;;;5093407;28;20378;-81
2023/03/31 06:44:25;;;;;;;7.53;6.40;;;;;;;;;;5093353;28;20743;-82
2023/03/31 06:46:51;;;;;;;6.57;5.95;;;;;;;;;;5093369;28;20374;-83
2023/03/31 06:49:17;;;;;;;9.45;7.00;;;;;;;;;;5093228;28;20382;-82
2023/03/31 06:51:43;;;;;;;9.43;6.80;;;;;;;;;;5093093;28;20386;-82
2023/03/31 06:54:09;;;;;;;9.00;7.00;;;;;;;;;;5093082;28;20455;-81
2023/03/31 06:56:35;;;;;;;13.40;8.93;;;;;;;;;;5093150;28;20373;-81
2023/03/31 06:59:01;;;;;;;12.50;9.00;;;;;;;;;;5074771;28;20465;-81
2023/03/31 07:01:27;;;;;;;11.73;9.13;;;;;;;;;;5093134;28;20810;-81
2023/03/31 07:03:53;;;;;;;15.75;10.05;;;;;;;;;;5081231;28;20386;-84
2023/03/31 07:06:19;;;;;;;15.13;9.40;;;;;;;;;;5092967;28;20405;-82
2023/03/31 07:08:45;;;;;;;12.90;9.02;;;;;;;;;;5092902;28;20417;-83
2023/03/31 07:11:11;;;;;;;9.82;8.80;;;;;;;;;;5092612;28;20808;-81
2023/03/31 07:13:37;;;;;;;11.02;8.07;;;;;;;;;;5092577;28;20447;-81
2023/03/31 07:16:03;;;;;;;13.20;7.97;;;;;;;;;;5092624;28;20469;-81
2023/03/31 07:18:33;;;;;;;6.63;5.85;;;;;;;;;;5092935;28;20848;-81
2023/03/31 07:20:59;;;;;;;8.70;6.00;;;;;;;;;;5092118;28;20374;-81
2023/03/31 07:23:26;;;;;;;6.85;5.55;;;;;;;;;;5092570;28;20417;-81
2023/03/31 07:25:52;;;;;;;7.40;5.85;;;;;;;;;;5092510;28;20467;-82
2023/03/31 07:28:18;;;;;;;5.93;5.43;;;;;;;;;;5092366;28;20854;-82
2023/03/31 07:30:44;;;;;;;6.75;5.85;;;;;;;;;;5092195;28;20410;-82
2023/03/31 07:33:10;;;;;;;5.90;4.85;;;;;;;;;;5092284;28;20427;-82
2023/03/31 07:35:40;;;;;;;5.85;4.40;;;;;;;;;;5092377;28;20465;-83
2023/03/31 07:38:07;;;;;;;4.10;2.88;;;;;;;;;;5092132;28;20378;-81
2023/03/31 07:40:33;;;;;;;4.93;2.90;;;;;;;;;;5092264;28;20373;-82
2023/03/31 07:42:59;;;;;;;3.47;2.60;;;;;;;;;;5092346;28;20960;-82
2023/03/31 07:45:26;;;;;;;4.93;2.60;;;;;;;;;;5091676;28;20799;-81
2023/03/31 07:47:53;;;;;;;3.30;2.30;;;;;;;;;;5092255;28;20755;-81
2023/03/31 07:50:20;;;;;;;3.97;2.30;;;;;;;;;;5091945;28;20426;-80
2023/03/31 07:52:46;;;;;;;5.10;3.13;;;;;;;;;;5092160;28;20401;-80
2023/03/31 07:55:12;;;;;;;4.35;2.53;;;;;;;;;;5091836;28;20393;-79
2023/03/31 07:57:39;;;;;;;3.38;2.00;;;;;;;;;;5092091;28;20382;-81
2023/03/31 08:00:07;;;;;;;3.40;1.92;;;;;;;;;;5091821;28;20381;-81
2023/03/31 08:02:33;;;;;;;2.58;1.65;;;;;;;;;;5092016;28;20388;-80
2023/03/31 08:04:59;;;;;;;3.47;1.70;;;;;;;;;;5091924;28;20460;-80
2023/03/31 08:07:29;;;;;;;4.23;1.70;;;;;;;;;;5091698;28;20807;-81
2023/03/31 08:09:55;;;;;;;2.33;1.55;;;;;;;;;;5091697;28;20370;-80
2023/03/31 08:12:21;;;;;;;3.15;1.70;;;;;;;;;;5091816;28;20381;-80
2023/03/31 08:14:47;;;;;;;1.77;1.58;;;;;;;;;;5091606;28;20370;-80
2023/03/31 08:17:13;;;;;;;2.17;1.55;;;;;;;;;;5091500;28;20378;-81
2023/03/31 08:19:39;;;;;;;3.58;1.58;;;;;;;;;;5091490;28;20405;-80
2023/03/31 08:22:05;;;;;;;3.33;1.50;;;;;;;;;;5091382;28;20395;-81
2023/03/31 08:24:31;;;;;;;2.50;1.30;;;;;;;;;;5090901;28;20378;-80
2023/03/31 08:26:57;;;;;;;2.28;1.40;;;;;;;;;;5091629;28;20818;-79
2023/03/31 08:29:23;;;;;;;2.15;1.50;;;;;;;;;;5091392;28;20409;-80
2023/03/31 08:31:49;;;;;;;2.70;1.33;;;;;;;;;;5091872;28;20378;-80
2023/03/31 08:34:15;;;;;;;4.43;1.73;;;;;;;;;;5091407;28;20398;-80
2023/03/31 08:36:41;;;;;;;2.30;1.38;;;;;;;;;;5091491;28;20408;-81
2023/03/31 08:39:08;;;;;;;2.83;1.35;;;;;;;;;;5091520;28;20372;-81
2023/03/31 08:41:52;;;;;;;2.03;1.20;;;;;;;;;;5090991;28;20382;-79
2023/03/31 08:44:21;;;;;;;2.97;1.70;;;;;;;;;;5090607;28;20464;-81
2023/03/31 08:46:48;;;;;;;2.47;1.70;;;;;;;;;;5091606;28;20384;-81
2023/03/31 08:49:16;;;;;;;2.80;1.60;;;;;;;;;;5096880;28;20377;-80
2023/03/31 08:51:47;;;;;;;2.47;1.40;;;;;;;;;;5099929;28;20436;-80
2023/03/31 08:54:16;;;;;;;3.40;1.70;;;;;;;;;;5093982;28;20455;-80
2023/03/31 08:56:44;;;;;;;2.85;1.70;;;;;;;;;;5103082;28;20392;-80
2023/03/31 08:59:46;;;;;;;4.07;1.67;;;;;;;;;;5104457;28;20381;-81
2023/03/31 09:02:31;;;;;;;4.55;1.90;;;;;;;;;;4994282;28;20409;-80
2023/03/31 09:05:05;;;;;;;3.17;1.80;;;;;;;;;;5087152;28;20457;-81
2023/03/31 09:07:44;;;;;;;4.10;1.90;;;;;;;;;;5092368;28;20736;-81
2023/03/31 09:10:13;;;;;;;2.63;1.52;;;;;;;;;;5091668;28;20758;-81
2023/03/31 09:12:58;;;;;;;3.15;1.70;;;;;;;;;;5091386;28;20500;-81
2023/03/31 09:15:28;;;;;;;2.53;1.48;;;;;;;;;;5091429;28;20370;-80
2023/03/31 09:17:56;;;;;;;2.58;1.50;;;;;;;;;;5091288;28;20378;-80
2023/03/31 09:20:28;;;;;;;4.30;1.43;;;;;;;;;;5091220;28;20449;-80
2023/03/31 09:22:57;;;;;;;3.25;1.45;;;;;;;;;;5090967;28;20407;-80
2023/03/31 09:25:25;;;;;;;3.55;1.40;;;;;;;;;;5091031;28;20385;-79
2023/03/31 09:27:52;;;;;;;3.35;1.67;;;;;;;;;;5090656;28;20377;-80
2023/03/31 09:30:26;;;;;;;3.70;1.60;;;;;;;;;;5090971;28;20398;-80
2023/03/31 09:32:55;;;;;;;2.08;0.98;;;;;;;;;;5090733;28;20454;-80
2023/03/31 09:35:22;;;;;;;3.90;1.70;;;;;;;;;;5091668;28;20374;-80
2023/03/31 09:37:48;;;;;;;3.55;1.40;;;;;;;;;;5094752;28;20385;-78
2023/03/31 09:40:18;;;;;;;3.67;1.55;;;;;;;;;;5094529;28;20389;-80
2023/03/31 09:42:45;;;;;;;2.90;1.10;;;;;;;;;;5095094;28;20374;-80
2023/03/31 09:45:16;;;;;;;3.78;1.50;;;;;;;;;;5094788;28;20385;-80
2023/03/31 09:47:43;;;;;;;4.03;1.60;;;;;;;;;;5094668;28;20378;-81
2023/03/31 09:50:11;;;;;;;4.43;1.70;;;;;;;;;;5094419;28;20413;-80
2023/03/31 09:52:39;;;;;;;3.50;1.40;;;;;;;;;;5084083;28;20410;-79
2023/03/31 09:55:25;;;;;;;4.07;1.20;;;;;;;;;;5094430;28;20731;-79
2023/03/31 09:57:52;;;;;;;2.80;1.30;;;;;;;;;;5094231;28;20370;-80
2023/03/31 10:00:20;;;;;;;2.92;1.13;;;;;;;;;;5092132;28;20374;-80
2023/03/31 10:02:49;;;;;;;2.58;1.00;;;;;;;;;;5082507;28;20388;-80
2023/03/31 10:05:20;;;;;;;3.50;0.95;;;;;;;;;;5094266;28;20378;-80
2023/03/31 10:10:26;;;;;;;2.90;1.10;;;;;;;;;;5071774;28;20992;-83
2023/03/31 10:12:52;;;;;;;3.17;1.30;;;;;;;;;;5073380;28;20407;-85
2023/03/31 10:15:20;;;;;;;2.80;1.20;;;;;;;;;;5056268;28;20870;-84
2023/03/31 10:17:47;;;;;;;3.40;1.30;;;;;;;;;;5061374;28;20406;-85
2023/03/31 10:20:31;;;;;;;3.78;1.50;;;;;;;;;;5055553;28;20639;-84
2023/03/31 10:23:01;;;;;;;1.85;1.15;;;;;;;;;;5069287;28;20388;-84
2023/03/31 10:25:28;;;;;;;4.13;1.30;;;;;;;;;;5073218;28;20391;-84
2023/03/31 10:27:55;;;;;;;2.67;1.20;;;;;;;;;;5073334;28;20391;-85
2023/03/31 10:30:23;;;;;;;2.95;1.10;;;;;;;;;;5073407;28;20463;-84
2023/03/31 10:32:49;;;;;;;3.53;1.33;;;;;;;;;;5055021;28;20896;-84
2023/03/31 10:35:34;;;;;;;4.25;1.17;;;;;;;;;;5073247;28;20467;-83
2023/03/31 10:38:10;;;;;;;3.60;1.48;;;;;;;;;;5054927;28;20747;-83
2023/03/31 10:40:36;;;;;;;2.38;1.00;;;;;;;;;;5073185;28;20400;-87
2023/03/31 10:43:12;;;;;;;3.10;1.10;;;;;;;;;;5073079;28;20387;-83
2023/03/31 10:45:45;;;;;;;3.55;1.23;;;;;;;;;;5071882;28;20383;-83
2023/03/31 10:48:19;;;;;;;3.08;1.00;;;;;;;;;;5040856;28;20385;-84
2023/03/31 10:50:45;;;;;;;2.08;1.10;;;;;;;;;;5054876;28;21026;-85
2023/03/31 10:53:12;;;;;;;3.20;1.20;;;;;;;;;;5073355;28;20533;-85
2023/03/31 10:55:45;;;;;;;3.60;1.27;;;;;;;;;;5070112;28;20381;-85
2023/03/31 10:58:17;;;;;;;3.20;1.13;;;;;;;;;;5043981;28;20473;-83
2023/03/31 11:00:45;;;;;;;4.72;1.45;;;;;;;;;;5072324;28;20470;-84
2023/03/31 11:03:22;;;;;;;2.92;1.13;;;;;;;;;;5055077;28;20384;-83
2023/03/31 11:06:03;;;;;;;2.85;1.25;;;;;;;;;;5073016;28;20380;-84
2023/03/31 11:08:29;;;;;;;5.93;1.70;;;;;;;;;;5068111;28;20443;-84
2023/03/31 11:11:02;;;;;;;3.60;1.58;;;;;;;;;;5072526;28;20468;-84
2023/03/31 11:13:40;;;;;;;4.93;1.70;;;;;;;;;;5064935;28;20761;-83
2023/03/31 11:16:27;;;;;;;4.25;1.40;;;;;;;;;;5054439;28;20396;-83
2023/03/31 11:19:08;;;;;;;3.83;1.50;;;;;;;;;;5071647;28;20485;-83
2023/03/31 11:21:43;;;;;;;4.60;1.45;;;;;;;;;;5072282;28;20857;-83
2023/03/31 11:24:13;;;;;;;4.40;1.42;;;;;;;;;;5061787;28;20890;-84
2023/03/31 11:26:51;;;;;;;3.70;1.40;;;;;;;;;;5055250;28;20393;-85
2023/03/31 11:29:23;;;;;;;5.43;1.70;;;;;;;;;;5052312;28;20386;-86
2023/03/31 11:32:08;;;;;;;3.72;1.67;;;;;;;;;;5057414;28;20407;-86
2023/03/31 11:34:34;;;;;;;3.90;1.40;;;;;;;;;;5071941;28;20435;-84
2023/03/31 11:37:16;;;;;;;5.25;1.50;;;;;;;;;;5057884;28;20768;-85
2023/03/31 11:39:47;;;;;;;3.33;1.77;;;;;;;;;;5066305;28;20396;-85
2023/03/31 11:42:22;;;;;;;3.70;1.48;;;;;;;;;;5060567;28;20486;-86
2023/03/31 11:44:51;;;;;;;4.18;1.63;;;;;;;;;;5071846;28;20383;-85
2023/03/31 11:47:26;;;;;;;4.22;1.50;;;;;;;;;;5070980;28;20911;-85
2023/03/31 11:49:52;;;;;;;5.07;1.63;;;;;;;;;;5070184;28;20849;-86
2023/03/31 11:52:22;;;;;;;4.65;1.65;;;;;;;;;;5055954;28;20464;-86
2023/03/31 11:54:48;;;;;;;4.70;1.73;;;;;;;;;;5063932;28;20399;-85
2023/03/31 11:57:17;;;;;;;2.88;1.38;;;;;;;;;;5071604;28;20379;-85
2023/03/31 11:59:44;;;;;;;3.38;1.75;;;;;;;;;;5066043;28;20452;-86
2023/03/31 12:02:16;;;;;;;4.80;1.45;;;;;;;;;;5047636;28;20753;-85
2023/03/31 12:04:43;;;;;;;4.20;1.50;;;;;;;;;;5047827;28;20389;-86
2023/03/31 12:07:28;;;;;;;5.40;1.50;;;;;;;;;;5068028;28;20853;-85
2023/03/31 12:10:04;;;;;;;2.67;1.15;;;;;;;;;;5057069;28;20427;-85
2023/03/31 12:12:32;;;;;;;2.83;1.02;;;;;;;;;;5066077;28;20443;-88
2023/03/31 12:15:01;;;;;;;3.88;1.05;;;;;;;;;;5071454;28;20380;-86
2023/03/31 12:17:28;;;;;;;3.90;1.20;;;;;;;;;;5071348;28;20368;-87
2023/03/31 12:20:09;;;;;;;3.00;1.10;;;;;;;;;;5041282;28;20924;-85
2023/03/31 12:22:43;;;;;;;3.65;1.23;;;;;;;;;;5059019;28;20424;-87
2023/03/31 12:25:13;;;;;;;2.63;1.10;;;;;;;;;;5057790;28;20426;-87
2023/03/31 12:27:40;;;;;;;4.30;1.30;;;;;;;;;;5053209;28;20390;-85
2023/03/31 12:30:11;;;;;;;2.45;1.00;;;;;;;;;;5071194;28;20379;-85
2023/03/31 12:32:39;;;;;;;3.22;0.98;;;;;;;;;;5065705;28;20762;-85
2023/03/31 12:35:15;;;;;;;9.18;1.15;;;;;;;;;;5069552;28;20881;-86
2023/03/31 12:37:53;;;;;;;2.72;0.70;;;;;;;;;;5068644;28;20451;-84
2023/03/31 12:40:25;;;;;;;3.33;0.63;;;;;;;;;;5066812;28;20872;-88
2023/03/31 12:42:51;;;;;;;1.20;0.50;;;;;;;;;;5063247;28;20376;-87
2023/03/31 12:45:30;;;;;;;1.30;0.32;;;;;;;;;;5058160;28;20406;-89
2023/03/31 12:47:59;;;;;;;1.40;0.40;;;;;;;;;;5071131;28;20382;-86
2023/03/31 12:50:26;;;;;;;0.60;0.30;;;;;;;;;;5071031;28;20403;-87
2023/03/31 12:53:00;;;;;;;1.30;0.40;;;;;;;;;;5070605;28;20482;-87
2023/03/31 12:55:46;;;;;;;1.10;0.50;;;;;;;;;;5070587;28;20406;-87
2023/03/31 12:58:25;;;;;;;1.05;0.40;;;;;;;;;;5054081;28;20441;-86
2023/03/31 13:01:00;;;;;;;1.50;0.45;;;;;;;;;;5053389;28;20390;-90
2023/03/31 13:03:50;;;;;;;2.07;0.50;;;;;;;;;;5070906;28;20850;-87
2023/03/31 13:06:25;;;;;;;2.28;0.35;;;;;;;;;;5043468;28;20392;-87
2023/03/31 13:09:03;;;;;;;3.90;0.50;;;;;;;;;;5052853;28;20415;-91
2023/03/31 13:11:35;;;;;;;2.88;0.52;;;;;;;;;;5060024;28;20398;-89
2023/03/31 13:14:06;;;;;;;1.15;0.40;;;;;;;;;;5074894;28;20465;-88
2023/03/31 13:16:33;;;;;;;2.78;0.65;;;;;;;;;;5074671;28;20380;-88
2023/03/31 13:18:59;;;;;;;1.75;0.60;;;;;;;;;;5074340;28;20432;-87
2023/03/31 13:21:26;;;;;;;2.15;0.63;;;;;;;;;;5074729;28;20463;-89
2023/03/31 13:23:52;;;;;;;2.10;0.80;;;;;;;;;;5074726;28;20880;-88
2023/03/31 13:26:34;;;;;;;2.05;0.68;;;;;;;;;;5074572;28;20390;-88
2023/03/31 13:29:16;;;;;;;1.73;0.60;;;;;;;;;;5065807;28;20790;-89
2023/03/31 13:32:14;;;;;;;2.50;0.63;;;;;;;;;;5073032;28;20402;-88
2023/03/31 13:34:44;;;;;;;2.40;0.70;;;;;;;;;;5008046;28;20781;-87
2023/03/31 13:37:29;;;;;;;3.03;0.90;;;;;;;;;;5067932;28;20380;-89
2023/03/31 13:40:07;;;;;;;1.95;0.77;;;;;;;;;;5067756;28;20412;-89
2023/03/31 13:42:52;;;;;;;4.13;1.23;;;;;;;;;;5046636;28;20389;-89
2023/03/31 13:45:33;;;;;;;2.03;0.80;;;;;;;;;;5065693;28;20379;-89
2023/03/31 13:48:17;;;;;;;3.50;0.90;;;;;;;;;;5069852;28;20393;-88
2023/03/31 13:50:56;;;;;;;3.65;0.93;;;;;;;;;;5066644;28;20865;-87
2023/03/31 13:53:22;;;;;;;4.50;0.90;;;;;;;;;;5068843;28;20408;-89
2023/03/31 13:55:48;;;;;;;2.33;0.82;;;;;;;;;;5055864;28;20380;-87
2023/03/31 13:58:19;;;;;;;2.97;1.00;;;;;;;;;;5062753;28;20386;-89
2023/03/31 14:00:48;;;;;;;3.90;0.83;;;;;;;;;;5071853;28;20472;-88
2023/03/31 14:03:37;;;;;;;3.20;0.80;;;;;;;;;;5062503;28;20452;-88
2023/03/31 14:06:21;;;;;;;3.08;0.80;;;;;;;;;;5074002;28;20394;-87
2023/03/31 14:09:14;;;;;;;4.63;1.00;;;;;;;;;;5062568;28;20478;-88
2023/03/31 14:11:41;;;;;;;2.73;0.80;;;;;;;;;;5058853;28;20430;-88
2023/03/31 14:14:12;;;;;;;3.75;1.08;;;;;;;;;;5050747;28;20450;-88
2023/03/31 14:16:40;;;;;;;3.40;0.98;;;;;;;;;;5058703;28;20371;-89
2023/03/31 14:19:27;;;;;;;2.28;0.80;;;;;;;;;;5051110;28;20941;-88
2023/03/31 14:22:05;;;;;;;2.42;0.82;;;;;;;;;;5060432;28;20379;-87
2023/03/31 14:24:54;;;;;;;1.83;0.80;;;;;;;;;;5066370;28;20406;-86
2023/03/31 14:27:20;;;;;;;1.88;0.70;;;;;;;;;;5024448;28;20477;-89
2023/03/31 14:29:58;;;;;;;4.40;1.90;;;;;;;;;;5070315;28;20391;-88
2023/03/31 14:32:37;;;;;;;3.80;1.73;;;;;;;;;;5065773;28;20444;-90
2023/03/31 14:35:12;;;;;;;3.10;1.33;;;;;;;;;;5073025;28;20415;-88
2023/03/31 14:37:38;;;;;;;1.45;0.60;;;;;;;;;;5056910;28;20886;-90
2023/03/31 14:40:08;;;;;;;4.18;2.40;;;;;;;;;;5070675;28;20380;-89
2023/03/31 14:42:38;;;;;;;2.50;1.10;;;;;;;;;;5073189;28;20781;-90
2023/03/31 14:45:08;;;;;;;3.35;1.27;;;;;;;;;;5073144;28;20376;-88
2023/03/31 14:47:34;;;;;;;3.53;1.20;;;;;;;;;;5067808;28;20467;-90
2023/03/31 14:50:02;;;;;;;3.37;1.40;;;;;;;;;;5065727;28;20422;-88
2023/03/31 14:52:32;;;;;;;4.97;1.63;;;;;;;;;;5060211;28;20470;-88
2023/03/31 14:54:59;;;;;;;3.63;0.90;;;;;;;;;;5065810;28;20979;-82
2023/03/31 14:57:29;;;;;;;2.50;0.82;;;;;;;;;;5072893;28;20784;-84
2023/03/31 14:59:55;;;;;;;2.25;0.68;;;;;;;;;;5066094;28;20804;-85
2023/03/31 15:02:33;;;;;;;1.52;0.45;;;;;;;;;;5062619;28;20398;-85
2023/03/31 15:05:01;;;;;;;1.60;0.40;;;;;;;;;;5069007;28;20419;-84